NORTHEAST SUFFOLK  -  Coastal Flood Advisory Coastal Flood Advisory     Rip Current Statement Rip Current Statement     Rip Current Statement Rip Current Statement        NORTHERN NASSAU  -  Coastal Flood Advisory Coastal Flood Advisory     Rip Current Statement Rip Current Statement        NORTHERN QUEENS  -  Coastal Flood Advisory Coastal Flood Advisory     Rip Current Statement Rip Current Statement        NORTHWEST SUFFOLK  -  Coastal Flood Advisory Coastal Flood Advisory     Rip Current Statement Rip Current Statement     Rip Current Statement Rip Current Statement        SOUTHEAST SUFFOLK  -  Coastal Flood Advisory Coastal Flood Advisory     Rip Current Statement Rip Current Statement     Rip Current Statement Rip Current Statement        SOUTHERN NASSAU  -  Coastal Flood Advisory Coastal Flood Advisory     Rip Current Statement Rip Current Statement        SOUTHERN QUEENS  -  Coastal Flood Advisory Coastal Flood Advisory     Rip Current Statement Rip Current Statement        SOUTHWEST SUFFOLK  -  Coastal Flood Advisory Coastal Flood Advisory     Rip Current Statement Rip Current Statement     Rip Current Statement Rip Current Statement      

Active alerts

Northern Queens
  Details for Northern Queens Coastal Flood Advisory  +1 additional alert
Southern Queens
  Details for Southern Queens Coastal Flood Advisory  +1 additional alert
Northern Nassau
  Details for Northern Nassau Coastal Flood Advisory  +1 additional alert
Southern Nassau
  Details for Southern Nassau Coastal Flood Advisory  +1 additional alert
Northwest Suffolk
  Details for Northwest Suffolk Coastal Flood Advisory  +2 additional alerts
Southwest Suffolk
  Details for Southwest Suffolk Coastal Flood Advisory  +2 additional alerts
Northeast Suffolk
  Details for Northeast Suffolk Coastal Flood Advisory  +2 additional alerts
Southeast Suffolk
  Details for Southeast Suffolk Coastal Flood Advisory  +2 additional alerts


WXM80 ListenWXM80 Stop

You find our weather info also at:

UK Metoffice

WeatherCloud

Weather Underground

Northeastern Weather Network

AWEKAS

Citizen Weather Observer Program (CWOP)

HAMweather, WeatherForYou, PWS Weather


Nearby METAR Reports

   
KFRG - Farmingdale, New York, USA
Distance from station: SSW 14 mi
Updated: Sep 22 2017 8:53 am
Clear  
Clear  
   Wind: North 13.8 mph<br />Gust to 13.8 mph
Wind: North 13.8 mph
Gust to 13.8 mph
Temperature: 66.2°F
Dew Point: 48.2°F
Humidity: 52%
Barometer: 29.98 inHg
Clouds: Clear
Visibility: 10 mi
Cloud details: Clear
KFRG 221253Z 36012G21KT 10SM CLR 19/09 A2998 RMK AO2 SLP151 T01890094
KISP - Islip, New York, USA
Distance from station: SE 15 mi
Updated: Sep 22 2017 8:56 am
Mostly Cloudy  
Mostly Cloudy  
   Wind: North 20.7 mph<br />Gust to 20.7 mph
Wind: North 20.7 mph
Gust to 20.7 mph
Temperature: 69.8°F
Dew Point: 51.8°F
Humidity: 53%
Barometer: 29.97 inHg
Clouds: Mostly Cloudy
Visibility: 10 mi
Cloud details: Partly Cloudy 2591 m,
Mostly Cloudy 5182 m,
Mostly Cloudy 7620 m
KISP 221256Z 01018G28KT 10SM SCT085 BKN170 BKN250 21/11 A2997 RMK AO2 PK WND 01028/1252 SLP147 T02110111
KBDR - Bridgeport, Connecticut, USA
Distance from station: NNE 20 mi
Updated: Sep 22 2017 8:52 am
Overcast  
Overcast  
   Wind: North 18.4 mph<br />Gust to 18.4 mph
Wind: North 18.4 mph
Gust to 18.4 mph
Temperature: 69.8°F
Dew Point: 50°F
Humidity: 50%
Barometer: 29.98 inHg
Clouds: Overcast
Visibility: 10 mi
Cloud details: Overcast 2438 m
KBDR 221252Z 36016G22KT 10SM OVC080 21/10 A2998 RMK AO2 SLP151 T02110100
KHPN - White Plains, New York, USA
Distance from station: WNW 22 mi
Updated: Sep 22 2017 8:56 am
Partly Cloudy  
Partly Cloudy  
   Wind: North 17.3 mph<br />Gust to 17.3 mph
Wind: North 17.3 mph
Gust to 17.3 mph
Temperature: 68°F
Dew Point: 46.4°F
Humidity: 46%
Barometer: 30.02 inHg
Clouds: Partly Cloudy
Visibility: 10 mi
Cloud details: Partly Cloudy 2743 m
KHPN 221256Z 35015G19KT 10SM SCT090 20/08 A3002 RMK AO2 SLP160 T02000083
KHWV - Shirley, New York, USA
Distance from station: ESE 25 mi
Updated: Sep 22 2017 8:56 am
Clear  
Clear  
   Wind: North 17.3 mph<br />Gust to 17.3 mph
Wind: North 17.3 mph
Gust to 17.3 mph
Temperature: 69.8°F
Dew Point: 53.6°F
Humidity: 57%
Barometer: 29.97 inHg
Clouds: Clear
Visibility: 10 mi
Cloud details: Clear
KHWV 221256Z AUTO 35015G23KT 10SM CLR 21/12 A2997 RMK AO2 SLP147 T02110122
KJFK - NYC/JFK Arpt, New York, USA
Distance from station: SW 30 mi
Updated: Sep 22 2017 8:51 am
Mostly Cloudy  
Mostly Cloudy  
   Wind: North 18.4 mph<br />Gust to 18.4 mph
Wind: North 18.4 mph
Gust to 18.4 mph
Temperature: 69.8°F
Dew Point: 48.2°F
Humidity: 46%
Barometer: 30 inHg
Clouds: Mostly Cloudy
Visibility: 10 mi
Cloud details: Partly Cloudy 2438 m,
Mostly Cloudy 5486 m,
Mostly Cloudy 7620 m
KJFK 221251Z 35016G24KT 10SM SCT080 BKN180 BKN250 21/09 A3000 RMK AO2 PK WND 35028/1234 SLP158 T02060089
KLGA - NYC/La Guardia, New York, USA
Distance from station: WSW 30 mi
Updated: Sep 22 2017 8:51 am
Mostly Cloudy  
Mostly Cloudy  
   Wind: North 13.8 mph
Wind: North 13.8 mph
Temperature: 69.8°F
Dew Point: 50°F
Humidity: 50%
Barometer: 30.01 inHg
Clouds: Mostly Cloudy
Visibility: 10 mi
Cloud details: Few Clouds 2591 m,
Partly Cloudy 5486 m,
Mostly Cloudy 7620 m
KLGA 221251Z 36012KT 10SM FEW085 SCT180 BKN250 21/10 A3001 RMK AO2 SLP163 T02110100 $
KDXR - Danbury, Connecticut, USA
Distance from station: NNW 32 mi
Updated: Sep 22 2017 8:53 am
Clear  
Clear  
   Wind: North 10.4 mph
Wind: North 10.4 mph
Temperature: 68°F
Dew Point: 48.2°F
Humidity: 49%
Barometer: 30.05 inHg
Clouds: Clear
Visibility: 10 mi
Cloud details: Clear
KDXR 221253Z 01009KT 10SM CLR 20/09 A3005 RMK AO2 SLP172 T02000089
KHVN - New Haven/Tweed, Connecticut, USA
Distance from station: NE 34 mi
Updated: Sep 22 2017 8:53 am
Partly Cloudy  
Partly Cloudy  
   Wind: North 23 mph<br />Gust to 23 mph
Wind: North 23 mph
Gust to 23 mph
Temperature: 68°F
Dew Point: 48.2°F
Humidity: 49%
Barometer: 29.98 inHg
Clouds: Partly Cloudy
Visibility: 10 mi
Cloud details: Partly Cloudy 5486 m
KHVN 221253Z 01020G29KT 10SM SCT180 20/09 A2998 RMK AO2 PK WND 01032/1212 SLP150 T02000094
KNYC - NYC/Central Park, New York, USA
Distance from station: WSW 35 mi
Updated: Sep 22 2017 8:51 am
Clear  
Clear  
   Wind: NNE 8.1 mph
Wind: NNE 8.1 mph
Temperature: 69.8°F
Dew Point: 48.2°F
Humidity: 46%
Barometer: 30.05 inHg
Clouds: Clear
Visibility: 10 mi
Cloud details: Clear
KNYC 221251Z AUTO 03007KT 340V080 10SM CLR 21/09 A3005 RMK AO2 SLP166 T02060089
KFOK - Westhampton Beach, New York, USA
Distance from station: E 38 mi
Updated: Sep 22 2017 8:53 am
Clear  
Clear  
   Wind: North 17.3 mph<br />Gust to 17.3 mph
Wind: North 17.3 mph
Gust to 17.3 mph
Temperature: 68°F
Dew Point: 53.6°F
Humidity: 60%
Barometer: 29.95 inHg
Clouds: Clear
Visibility: 10 mi
Cloud details: Clear
KFOK 221253Z 36015G24KT 10SM CLR 20/12 A2995 RMK AO2 PK WND 36029/1222 SLP142 T02000117
KTEB - Teterboro, New Jersey, USA
Distance from station: W 38 mi
Updated: Sep 22 2017 8:51 am
Clear  
Clear  
   Wind: North 11.5 mph<br />Gust to 11.5 mph
Wind: North 11.5 mph
Gust to 11.5 mph
Temperature: 71.6°F
Dew Point: 48.2°F
Humidity: 44%
Barometer: 30.02 inHg
Clouds: Clear
Visibility: 10 mi
Cloud details: Clear
KTEB 221251Z 36010G17KT 10SM CLR 22/09 A3002 RMK AO2 SLP164 T02170094
KOXC - Oxford/Waterbury, Connecticut, USA
Distance from station: NNE 39 mi
Updated: Sep 22 2017 8:51 am
Few Clouds  
Few Clouds  
   Wind: North 13.8 mph<br />Gust to 13.8 mph
Wind: North 13.8 mph
Gust to 13.8 mph
Temperature: 64.4°F
Dew Point: 48.2°F
Humidity: 56%
Barometer: 30.03 inHg
Clouds: Few Clouds
Visibility: 10 mi
Cloud details: Few Clouds 1341 m
KOXC 221251Z 01012G20KT 10SM FEW044 18/09 A3003 RMK AO2 SLP177 T01780094
KEWR - Newark, New Jersey, USA
Distance from station: WSW 47 mi
Updated: Sep 22 2017 8:51 am
Mostly Cloudy  
Mostly Cloudy  
   Wind: North 17.3 mph
Wind: North 17.3 mph
Temperature: 71.6°F
Dew Point: 46.4°F
Humidity: 41%
Barometer: 30.02 inHg
Clouds: Mostly Cloudy
Visibility: 10 mi
Cloud details: Few Clouds 3048 m,
Mostly Cloudy 5486 m,
Mostly Cloudy 7925 m
KEWR 221251Z 36015KT 10SM FEW100 BKN180 BKN260 22/08 A3002 RMK AO2 SLP166 T02170083
KMMK - Meriden, Connecticut, USA
Distance from station: NNE 48 mi
Updated: Sep 22 2017 8:53 am
Clear  
Clear  
   Wind: North 18.4 mph<br />Gust to 18.4 mph
Wind: North 18.4 mph
Gust to 18.4 mph
Temperature: 66.2°F
Dew Point: 48.2°F
Humidity: 52%
Barometer: 30.01 inHg
Clouds: Clear
Visibility: 10 mi
Cloud details: Clear
KMMK 221253Z AUTO 36016G25KT 10SM CLR 19/09 A3001 RMK AO2 SLP159 T01940089

Script developed by  Saratoga-weather.org Adapted for the template by  Weerstation Leuven

Recycling: Americans use 85,000,000 tons of paper a year; about 680 pounds per person.